Time;durP1;ratioP1;P1;durP2;ratioP2;P2;SDS_P1;SDS_P2;PMS_P1;PMS_P2;Temp;Humidity;BMP_temperature;BMP_pressure;BME280_temperature;BME280_humidity;BME280_pressure;Samples;Min_cycle;Max_cycle;Signal;HPM_P1;HPM_P2
2023/04/19 00:02:13;;;;;;;;;;;;;;;;;;4996705;28;19924;-81
2023/04/19 00:04:38;;;;;;;;;;;;;;;;;;4997088;28;20426;-79
2023/04/19 00:07:03;;;;;;;;;;;;;;;;;;4992921;28;19918;-80
2023/04/19 00:09:28;;;;;;;;;;;;;;;;;;4995279;28;20349;-80
2023/04/19 00:11:54;;;;;;;;;;;;;;;;;;4994408;28;19921;-80
2023/04/19 00:14:19;;;;;;;;;;;;;;;;;;5026038;28;19914;-80
2023/04/19 00:16:44;;;;;;;;;;;;;;;;;;5024908;28;20012;-80
2023/04/19 00:19:10;;;;;;;;;;;;;;;;;;4998250;28;19909;-80
2023/04/19 00:21:35;;;;;;;;;;;;;;;;;;4998804;28;19914;-80
2023/04/19 00:24:01;;;;;;;;;;;;;;;;;;4992508;28;19917;-80
2023/04/19 00:26:26;;;;;;;;;;;;;;;;;;5026119;28;19917;-79
2023/04/19 00:28:51;;;;;;;;;;;;;;;;;;5011622;28;20011;-80
2023/04/19 00:31:17;;;;;;;;;;;;;;;;;;5029755;28;20431;-80
2023/04/19 00:33:42;;;;;;;;;;;;;;;;;;5035973;28;19917;-80
2023/04/19 00:36:08;;;;;;;;;;;;;;;;;;5037654;28;19921;-77
2023/04/19 00:38:34;;;;;;;;;;;;;;;;;;5019391;28;19913;-79
2023/04/19 00:40:59;;;;;;;;;;;;;;;;;;5006254;28;20087;-80
2023/04/19 00:43:24;;;;;;;;;;;;;;;;;;4991901;28;19914;-80
2023/04/19 00:45:50;;;;;;;;;;;;;;;;;;4993212;28;20387;-79
2023/04/19 00:48:17;;;;;;;;;;;;;;;;;;4986869;28;19917;-80
2023/04/19 00:50:44;;;;;;;;;;;;;;;;;;5019239;28;19914;-80
2023/04/19 00:53:09;;;;;;;;;;;;;;;;;;4992190;28;20266;-80
2023/04/19 00:55:34;;;;;;;;;;;;;;;;;;5024847;28;20375;-79
2023/04/19 00:58:00;;;;;;;;;;;;;;;;;;4992178;28;20004;-80
2023/04/19 01:00:25;;;;;;;;;;;;;;;;;;4993826;28;19944;-80
2023/04/19 01:02:51;;;;;;;;;;;;;;;;;;4993381;28;19941;-80
2023/04/19 01:05:17;;;;;;;;;;;;;;;;;;5008196;28;19914;-81
2023/04/19 01:07:42;;;;;;;;;;;;;;;;;;4991814;28;20417;-80
2023/04/19 01:10:08;;;;;;;;;;;;;;;;;;5019002;28;20008;-80
2023/04/19 01:12:33;;;;;;;;;;;;;;;;;;4996031;28;20000;-80
2023/04/19 01:14:58;;;;;;;;;;;;;;;;;;4994967;28;19918;-80
2023/04/19 01:17:24;;;;;;;;;;;;;;;;;;5004767;28;19936;-80
2023/04/19 01:19:49;;;;;;;;;;;;;;;;;;5013236;28;19920;-80
2023/04/19 01:22:15;;;;;;;;;;;;;;;;;;5033152;28;19910;-80
2023/04/19 01:24:40;;;;;;;;;;;;;;;;;;5034113;28;19913;-80
2023/04/19 01:27:07;;;;;;;;;;;;;;;;;;5034578;28;19914;-81
2023/04/19 01:29:32;;;;;;;;;;;;;;;;;;5027661;28;20028;-80
2023/04/19 01:31:57;;;;;;;;;;;;;;;;;;4996389;28;19909;-80
2023/04/19 01:34:24;;;;;;;;;;;;;;;;;;4996510;28;19914;-80
2023/04/19 01:36:50;;;;;;;;;;;;;;;;;;4996728;28;19976;-80
2023/04/19 01:39:15;;;;;;;;;;;;;;;;;;4994910;28;19914;-80
2023/04/19 01:41:40;;;;;;;;;;;;;;;;;;4995337;28;19909;-80
2023/04/19 01:44:08;;;;;;;;;;;;;;;;;;4996974;28;19914;-80
2023/04/19 01:46:33;;;;;;;;;;;;;;;;;;4996839;28;19920;-79
2023/04/19 01:48:59;;;;;;;;;;;;;;;;;;4998552;28;19917;-79
2023/04/19 01:51:24;;;;;;;;;;;;;;;;;;5027904;28;19916;-79
2023/04/19 01:53:52;;;;;;;;;;;;;;;;;;5004894;28;19914;-79
2023/04/19 01:56:17;;;;;;;;;;;;;;;;;;4989104;28;20361;-79
2023/04/19 01:58:43;;;;;;;;;;;;;;;;;;4995281;28;19914;-81
2023/04/19 02:01:11;;;;;;;;;;;;;;;;;;4995203;28;19949;-80
2023/04/19 02:03:36;;;;;;;;;;;;;;;;;;4994921;28;19924;-78
2023/04/19 02:06:02;;;;;;;;;;;;;;;;;;4994991;28;20004;-80
2023/04/19 02:08:27;;;;;;;;;;;;;;;;;;4995471;28;19913;-80
2023/04/19 02:10:52;;;;;;;;;;;;;;;;;;4996827;28;19921;-80
2023/04/19 02:13:18;;;;;;;;;;;;;;;;;;4995299;28;20301;-80
2023/04/19 02:15:43;;;;;;;;;;;;;;;;;;4975560;28;19910;-80
2023/04/19 02:18:08;;;;;;;;;;;;;;;;;;5026416;28;19918;-80
2023/04/19 02:20:34;;;;;;;;;;;;;;;;;;5027390;28;20288;-81
2023/04/19 02:22:59;;;;;;;;;;;;;;;;;;4994908;28;19945;-80
2023/04/19 02:25:26;;;;;;;;;;;;;;;;;;4994454;28;19909;-81
2023/04/19 02:27:52;;;;;;;;;;;;;;;;;;4993957;28;19920;-80
2023/04/19 02:30:17;;;;;;;;;;;;;;;;;;4994215;28;19909;-80
2023/04/19 02:32:43;;;;;;;;;;;;;;;;;;4995071;28;19920;-80
2023/04/19 02:35:10;;;;;;;;;;;;;;;;;;4994083;28;19921;-80
2023/04/19 02:37:35;;;;;;;;;;;;;;;;;;4994781;28;19913;-80
2023/04/19 02:40:01;;;;;;;;;;;;;;;;;;4996355;28;19909;-80
2023/04/19 02:42:27;;;;;;;;;;;;;;;;;;4993560;28;19914;-80
2023/04/19 02:44:53;;;;;;;;;;;;;;;;;;4995140;28;19916;-79
2023/04/19 02:47:22;;;;;;;;;;;;;;;;;;5008664;28;20409;-79
2023/04/19 02:49:47;;;;;;;;;;;;;;;;;;4994376;28;20016;-79
2023/04/19 02:52:13;;;;;;;;;;;;;;;;;;5007973;28;19914;-80
2023/04/19 02:54:39;;;;;;;;;;;;;;;;;;4993428;28;19957;-79
2023/04/19 02:57:05;;;;;;;;;;;;;;;;;;5022040;28;20004;-79
2023/04/19 02:59:30;;;;;;;;;;;;;;;;;;4993753;28;20285;-79
2023/04/19 03:01:58;;;;;;;;;;;;;;;;;;5023505;28;20016;-80
2023/04/19 03:04:24;;;;;;;;;;;;;;;;;;4995476;28;19952;-82
2023/04/19 03:06:49;;;;;;;;;;;;;;;;;;4995400;28;19921;-78
2023/04/19 03:09:15;;;;;;;;;;;;;;;;;;4997867;28;19933;-78
2023/04/19 03:11:40;;;;;;;;;;;;;;;;;;5025667;28;19913;-79
2023/04/19 03:14:06;;;;;;;;;;;;;;;;;;4993285;28;19968;-79
2023/04/19 03:16:32;;;;;;;;;;;;;;;;;;5024733;28;19917;-79
2023/04/19 03:18:58;;;;;;;;;;;;;;;;;;5009560;28;20369;-80
2023/04/19 03:21:27;;;;;;;;;;;;;;;;;;5024240;28;19952;-80
2023/04/19 03:23:54;;;;;;;;;;;;;;;;;;5025827;28;19913;-79
2023/04/19 03:26:19;;;;;;;;;;;;;;;;;;4993022;28;20016;-79
2023/04/19 03:28:47;;;;;;;;;;;;;;;;;;4994439;28;20080;-80
2023/04/19 03:31:21;;;;;;;;;;;;;;;;;;5024514;28;19956;-80
2023/04/19 03:33:49;;;;;;;;;;;;;;;;;;4993840;28;19913;-80
2023/04/19 03:36:15;;;;;;;;;;;;;;;;;;5025258;28;20312;-79
2023/04/19 03:38:43;;;;;;;;;;;;;;;;;;5027700;28;19917;-80
2023/04/19 03:41:14;;;;;;;;;;;;;;;;;;4994387;28;19909;-80
2023/04/19 03:43:39;;;;;;;;;;;;;;;;;;4993145;28;20013;-81
2023/04/19 03:46:04;;;;;;;;;;;;;;;;;;4995188;28;19913;-80
2023/04/19 03:48:30;;;;;;;;;;;;;;;;;;4994125;28;19913;-81
2023/04/19 03:50:55;;;;;;;;;;;;;;;;;;5021168;28;19910;-80
2023/04/19 03:53:21;;;;;;;;;;;;;;;;;;4993372;28;20396;-77
2023/04/19 03:55:46;;;;;;;;;;;;;;;;;;4993429;28;19917;-80
2023/04/19 03:58:11;;;;;;;;;;;;;;;;;;4993107;28;20004;-80
2023/04/19 04:00:45;;;;;;;;;;;;;;;;;;5024999;28;19960;-81
2023/04/19 04:03:11;;;;;;;;;;;;;;;;;;4994734;28;19921;-81
2023/04/19 04:05:37;;;;;;;;;;;;;;;;;;5008655;28;19921;-80
2023/04/19 04:08:02;;;;;;;;;;;;;;;;;;4998472;28;19921;-79
2023/04/19 04:10:28;;;;;;;;;;;;;;;;;;5029945;28;19910;-80
2023/04/19 04:12:53;;;;;;;;;;;;;;;;;;5000965;28;19913;-81
2023/04/19 04:15:24;;;;;;;;;;;;;;;;;;5027109;28;19910;-80
2023/04/19 04:17:52;;;;;;;;;;;;;;;;;;5028911;28;19914;-81
2023/04/19 04:20:18;;;;;;;;;;;;;;;;;;4995787;28;20288;-79
2023/04/19 04:22:45;;;;;;;;;;;;;;;;;;4998514;28;20004;-80
2023/04/19 04:25:12;;;;;;;;;;;;;;;;;;5024800;28;19918;-80
2023/04/19 04:27:38;;;;;;;;;;;;;;;;;;5024421;28;20292;-79
2023/04/19 04:30:05;;;;;;;;;;;;;;;;;;5017965;28;19909;-78
2023/04/19 04:32:34;;;;;;;;;;;;;;;;;;5016347;28;19920;-77
2023/04/19 04:35:00;;;;;;;;;;;;;;;;;;5026756;28;19953;-77
2023/04/19 04:37:41;;;;;;;;;;;;;;;;;;4991408;28;20397;-79
2023/04/19 04:40:09;;;;;;;;;;;;;;;;;;4995721;28;19920;-80
2023/04/19 04:42:36;;;;;;;;;;;;;;;;;;4985680;28;19909;-81
2023/04/19 04:45:02;;;;;;;;;;;;;;;;;;5024280;28;19968;-81
2023/04/19 04:47:28;;;;;;;;;;;;;;;;;;5033308;28;19913;-81
2023/04/19 04:49:54;;;;;;;;;;;;;;;;;;5029168;28;20433;-80
2023/04/19 04:52:19;;;;;;;;;;;;;;;;;;4997441;28;20041;-82
2023/04/19 04:54:56;;;;;;;;;;;;;;;;;;5026036;28;19916;-79
2023/04/19 04:57:27;;;;;;;;;;;;;;;;;;5002749;28;19913;-82
2023/04/19 04:59:55;;;;;;;;;;;;;;;;;;5033956;28;19914;-81
2023/04/19 05:02:22;;;;;;;;;;;;;;;;;;5030949;28;19993;-81
2023/04/19 05:04:49;;;;;;;;;;;;;;;;;;5036297;28;20320;-80
2023/04/19 05:07:15;;;;;;;;;;;;;;;;;;5000910;28;19917;-80
2023/04/19 05:09:40;;;;;;;;;;;;;;;;;;5035523;28;19967;-80
2023/04/19 05:12:05;;;;;;;;;;;;;;;;;;5032010;28;19960;-82
2023/04/19 05:14:31;;;;;;;;;;;;;;;;;;5028193;28;19920;-81
2023/04/19 05:16:56;;;;;;;;;;;;;;;;;;5029700;28;19909;-82
2023/04/19 05:19:21;;;;;;;;;;;;;;;;;;5014069;28;19914;-81
2023/04/19 05:21:53;;;;;;;;;;;;;;;;;;4981836;28;19981;-81
2023/04/19 05:24:18;;;;;;;;;;;;;;;;;;4999344;28;20342;-81
2023/04/19 05:26:44;;;;;;;;;;;;;;;;;;4981758;28;19917;-82
2023/04/19 05:29:10;;;;;;;;;;;;;;;;;;4999213;28;19920;-83
2023/04/19 05:31:48;;;;;;;;;;;;;;;;;;4983534;28;20268;-82
2023/04/19 05:34:20;;;;;;;;;;;;;;;;;;4998148;28;19925;-81
2023/04/19 05:36:46;;;;;;;;;;;;;;;;;;4998512;28;19921;-81
2023/04/19 05:39:12;;;;;;;;;;;;;;;;;;5001442;28;19916;-82
2023/04/19 05:41:37;;;;;;;;;;;;;;;;;;5000846;28;20423;-82
2023/04/19 05:44:02;;;;;;;;;;;;;;;;;;5005555;28;19909;-80
2023/04/19 05:46:28;;;;;;;;;;;;;;;;;;5004090;28;19921;-81
2023/04/19 05:48:55;;;;;;;;;;;;;;;;;;4995261;28;19909;-80
2023/04/19 05:51:23;;;;;;;;;;;;;;;;;;5003649;28;20408;-82
2023/04/19 05:53:56;;;;;;;;;;;;;;;;;;4997957;28;19955;-81
2023/04/19 05:56:21;;;;;;;;;;;;;;;;;;5001382;28;20015;-80
2023/04/19 05:58:47;;;;;;;;;;;;;;;;;;5036596;28;19915;-80
2023/04/19 06:01:12;;;;;;;;;;;;;;;;;;4999582;28;19914;-80
2023/04/19 06:03:38;;;;;;;;;;;;;;;;;;5038476;28;19918;-83
2023/04/19 06:06:04;;;;;;;;;;;;;;;;;;5029165;28;19971;-81
2023/04/19 06:08:29;;;;;;;;;;;;;;;;;;5000857;28;19968;-82
2023/04/19 06:10:55;;;;;;;;;;;;;;;;;;5000116;28;19914;-81
2023/04/19 06:13:20;;;;;;;;;;;;;;;;;;5030143;28;20387;-81
2023/04/19 06:15:46;;;;;;;;;;;;;;;;;;5027364;28;19920;-82
2023/04/19 06:18:11;;;;;;;;;;;;;;;;;;4987536;28;19909;-82
2023/04/19 06:20:36;;;;;;;;;;;;;;;;;;4998531;28;19920;-83
2023/04/19 06:23:02;;;;;;;;;;;;;;;;;;4997154;28;19964;-80
2023/04/19 06:25:27;;;;;;;;;;;;;;;;;;4999636;28;19920;-82
2023/04/19 06:27:52;;;;;;;;;;;;;;;;;;5005031;28;20287;-82
2023/04/19 06:30:18;;;;;;;;;;;;;;;;;;5008025;28;20075;-82
2023/04/19 06:32:43;;;;;;;;;;;;;;;;;;5003174;28;19929;-81
2023/04/19 06:35:09;;;;;;;;;;;;;;;;;;4998398;28;19926;-83
2023/04/19 06:37:34;;;;;;;;;;;;;;;;;;5014184;28;19936;-82
2023/04/19 06:39:59;;;;;;;;;;;;;;;;;;5033248;28;19914;-82
2023/04/19 06:42:26;;;;;;;;;;;;;;;;;;5010429;28;19914;-83
2023/04/19 06:44:52;;;;;;;;;;;;;;;;;;5010206;28;20377;-82
2023/04/19 06:47:17;;;;;;;;;;;;;;;;;;5012788;28;19920;-81
2023/04/19 06:50:07;;;;;;;;;;;;;;;;;;5005960;28;19925;-82
2023/04/19 06:52:33;;;;;;;;;;;;;;;;;;5029103;28;19914;-83
2023/04/19 06:54:58;;;;;;;;;;;;;;;;;;5031503;28;19925;-81
2023/04/19 06:57:24;;;;;;;;;;;;;;;;;;5006698;28;19936;-82
2023/04/19 06:59:49;;;;;;;;;;;;;;;;;;5031604;28;19976;-82
2023/04/19 07:02:14;;;;;;;;;;;;;;;;;;5018138;28;20012;-83
2023/04/19 07:04:40;;;;;;;;;;;;;;;;;;4999723;28;19910;-83
2023/04/19 07:07:05;;;;;;;;;;;;;;;;;;5015486;28;19918;-83
2023/04/19 07:09:30;;;;;;;;;;;;;;;;;;5015037;28;19916;-83
2023/04/19 07:11:56;;;;;;;;;;;;;;;;;;5016862;28;19921;-82
2023/04/19 07:14:22;;;;;;;;;;;;;;;;;;5032481;28;20428;-82
2023/04/19 07:16:47;;;;;;;;;;;;;;;;;;4998837;28;20305;-83
2023/04/19 07:19:13;;;;;;;;;;;;;;;;;;4991116;28;19909;-83
2023/04/19 07:21:38;;;;;;;;;;;;;;;;;;5000936;28;19917;-83
2023/04/19 07:24:04;;;;;;;;;;;;;;;;;;5037347;28;20008;-82
2023/04/19 07:26:29;;;;;;;;;;;;;;;;;;5027173;28;20056;-82
2023/04/19 07:28:55;;;;;;;;;;;;;;;;;;5015991;28;19909;-83
2023/04/19 07:31:21;;;;;;;;;;;;;;;;;;5012100;28;20427;-81
2023/04/19 07:33:46;;;;;;;;;;;;;;;;;;5047290;28;19910;-81
2023/04/19 07:36:11;;;;;;;;;;;;;;;;;;5013288;28;19922;-81
2023/04/19 07:38:37;;;;;;;;;;;;;;;;;;5015308;28;19909;-83
2023/04/19 07:41:03;;;;;;;;;;;;;;;;;;5012918;28;19913;-82
2023/04/19 07:43:28;;;;;;;;;;;;;;;;;;4999378;28;19945;-82
2023/04/19 07:45:53;;;;;;;;;;;;;;;;;;4999800;28;19964;-83
2023/04/19 07:48:18;;;;;;;;;;;;;;;;;;4987116;28;19914;-82
2023/04/19 07:50:44;;;;;;;;;;;;;;;;;;4997179;28;19920;-82
2023/04/19 07:53:09;;;;;;;;;;;;;;;;;;5031823;28;19910;-81
2023/04/19 07:55:35;;;;;;;;;;;;;;;;;;5032255;28;20324;-83
2023/04/19 07:58:00;;;;;;;;;;;;;;;;;;5004422;28;19914;-82
2023/04/19 08:00:25;;;;;;;;;;;;;;;;;;5003637;28;19914;-83
2023/04/19 08:02:51;;;;;;;;;;;;;;;;;;5004067;28;19948;-83
2023/04/19 08:05:16;;;;;;;;;;;;;;;;;;4990374;28;19953;-82
2023/04/19 08:07:41;;;;;;;;;;;;;;;;;;4997826;28;19913;-84
2023/04/19 08:10:07;;;;;;;;;;;;;;;;;;5003373;28;20321;-83
2023/04/19 08:12:32;;;;;;;;;;;;;;;;;;4992084;28;19929;-82
2023/04/19 08:14:57;;;;;;;;;;;;;;;;;;5029768;28;19914;-82
2023/04/19 08:17:23;;;;;;;;;;;;;;;;;;4999415;28;20262;-82
2023/04/19 08:19:48;;;;;;;;;;;;;;;;;;4998854;28;19920;-82
2023/04/19 08:22:13;;;;;;;;;;;;;;;;;;4992379;28;19937;-82
2023/04/19 08:24:39;;;;;;;;;;;;;;;;;;5000728;28;19918;-81
2023/04/19 08:27:04;;;;;;;;;;;;;;;;;;5031471;28;19913;-83
2023/04/19 08:29:30;;;;;;;;;;;;;;;;;;4999853;28;19914;-84
2023/04/19 08:31:55;;;;;;;;;;;;;;;;;;5001033;28;19967;-81
2023/04/19 08:34:20;;;;;;;;;;;;;;;;;;5003656;28;20064;-83
2023/04/19 08:36:46;;;;;;;;;;;;;;;;;;5006292;28;20441;-82
2023/04/19 08:39:12;;;;;;;;;;;;;;;;;;4998949;28;19938;-83
2023/04/19 08:41:37;;;;;;;;;;;;;;;;;;4998865;28;20000;-82
2023/04/19 08:44:02;;;;;;;;;;;;;;;;;;4997414;28;19913;-83
2023/04/19 08:46:28;;;;;;;;;;;;;;;;;;4998588;28;19914;-82
2023/04/19 08:48:53;;;;;;;;;;;;;;;;;;5006050;28;19920;-83
2023/04/19 08:51:18;;;;;;;;;;;;;;;;;;4998143;28;19909;-83
2023/04/19 08:53:44;;;;;;;;;;;;;;;;;;5002669;28;19914;-83
2023/04/19 08:56:09;;;;;;;;;;;;;;;;;;4981019;28;19910;-83
2023/04/19 08:58:34;;;;;;;;;;;;;;;;;;4997567;28;19914;-82
2023/04/19 09:01:01;;;;;;;;;;;;;;;;;;4998376;28;19910;-82
2023/04/19 09:03:26;;;;;;;;;;;;;;;;;;4990049;28;20317;-82
2023/04/19 09:05:52;;;;;;;;;;;;;;;;;;4998956;28;19914;-84
2023/04/19 09:08:17;;;;;;;;;;;;;;;;;;5009741;28;19913;-82
2023/04/19 09:10:42;;;;;;;;;;;;;;;;;;5004535;28;19916;-82
2023/04/19 09:13:08;;;;;;;;;;;;;;;;;;5009368;28;19913;-82
2023/04/19 09:15:33;;;;;;;;;;;;;;;;;;4998717;28;19910;-83
2023/04/19 09:17:59;;;;;;;;;;;;;;;;;;5030757;28;20283;-82
2023/04/19 09:20:25;;;;;;;;;;;;;;;;;;4997981;28;19936;-83
2023/04/19 09:22:50;;;;;;;;;;;;;;;;;;4997891;28;19965;-83
2023/04/19 09:25:15;;;;;;;;;;;;;;;;;;4999842;28;19955;-81
2023/04/19 09:27:41;;;;;;;;;;;;;;;;;;4997282;28;19995;-81
2023/04/19 09:30:06;;;;;;;;;;;;;;;;;;4997254;28;20013;-83
2023/04/19 09:32:31;;;;;;;;;;;;;;;;;;4999925;28;20037;-82
2023/04/19 09:34:57;;;;;;;;;;;;;;;;;;4983970;28;19918;-83
2023/04/19 09:37:22;;;;;;;;;;;;;;;;;;4998241;28;19924;-82
2023/04/19 09:39:47;;;;;;;;;;;;;;;;;;5002037;28;19910;-84
2023/04/19 09:42:13;;;;;;;;;;;;;;;;;;4999732;28;19968;-83
2023/04/19 09:44:38;;;;;;;;;;;;;;;;;;4997012;28;20365;-82
2023/04/19 09:47:03;;;;;;;;;;;;;;;;;;4995519;28;19949;-84
2023/04/19 09:49:29;;;;;;;;;;;;;;;;;;4996922;28;19921;-83
2023/04/19 09:51:54;;;;;;;;;;;;;;;;;;4995769;28;19976;-83
2023/04/19 09:54:20;;;;;;;;;;;;;;;;;;5000961;28;19916;-82
2023/04/19 09:56:45;;;;;;;;;;;;;;;;;;4997663;28;19952;-83
2023/04/19 09:59:10;;;;;;;;;;;;;;;;;;4996810;28;20290;-83
2023/04/19 10:01:36;;;;;;;;;;;;;;;;;;4997887;28;20435;-83
2023/04/19 10:04:01;;;;;;;;;;;;;;;;;;4997944;28;20396;-83
2023/04/19 10:06:27;;;;;;;;;;;;;;;;;;4997508;28;19924;-82
2023/04/19 10:08:52;;;;;;;;;;;;;;;;;;5030156;28;19917;-82
2023/04/19 10:11:17;;;;;;;;;;;;;;;;;;4998883;28;20436;-81
2023/04/19 10:13:42;;;;;;;;;;;;;;;;;;4997767;28;19909;-81
2023/04/19 10:16:08;;;;;;;;;;;;;;;;;;4997801;28;19914;-82
2023/04/19 10:18:34;;;;;;;;;;;;;;;;;;5000502;28;19909;-83
2023/04/19 10:20:59;;;;;;;;;;;;;;;;;;4998783;28;19924;-82
2023/04/19 10:23:25;;;;;;;;;;;;;;;;;;5026241;28;19909;-84
2023/04/19 10:25:50;;;;;;;;;;;;;;;;;;5001526;28;19925;-81
2023/04/19 10:28:16;;;;;;;;;;;;;;;;;;5001006;28;20391;-84
2023/04/19 10:30:41;;;;;;;;;;;;;;;;;;4998827;28;19921;-83
2023/04/19 10:33:06;;;;;;;;;;;;;;;;;;4998405;28;19909;-83
2023/04/19 10:35:32;;;;;;;;;;;;;;;;;;4996747;28;20000;-82
2023/04/19 10:37:57;;;;;;;;;;;;;;;;;;4998269;28;19909;-84
2023/04/19 10:40:22;;;;;;;;;;;;;;;;;;4997491;28;19921;-84
2023/04/19 10:42:48;;;;;;;;;;;;;;;;;;4997602;28;19916;-83
2023/04/19 10:45:13;;;;;;;;;;;;;;;;;;4998253;28;20262;-83
2023/04/19 10:47:38;;;;;;;;;;;;;;;;;;4998425;28;19917;-83
2023/04/19 10:50:04;;;;;;;;;;;;;;;;;;4996274;28;20270;-82
2023/04/19 10:52:29;;;;;;;;;;;;;;;;;;4999437;28;19910;-84
2023/04/19 10:54:54;;;;;;;;;;;;;;;;;;4998769;28;20369;-83
2023/04/19 10:57:20;;;;;;;;;;;;;;;;;;4990850;28;19910;-83
2023/04/19 10:59:45;;;;;;;;;;;;;;;;;;4989902;28;20000;-83
2023/04/19 11:02:10;;;;;;;;;;;;;;;;;;4992806;28;19921;-83
2023/04/19 11:04:36;;;;;;;;;;;;;;;;;;5002054;28;19957;-83
2023/04/19 11:07:01;;;;;;;;;;;;;;;;;;5001082;28;19913;-83
2023/04/19 11:09:26;;;;;;;;;;;;;;;;;;4997168;28;20373;-83
2023/04/19 11:11:52;;;;;;;;;;;;;;;;;;4995117;28;19917;-83
2023/04/19 11:14:17;;;;;;;;;;;;;;;;;;4995206;28;20400;-81
2023/04/19 11:16:42;;;;;;;;;;;;;;;;;;4995602;28;19916;-84
2023/04/19 11:19:08;;;;;;;;;;;;;;;;;;4999161;28;19922;-83
2023/04/19 11:21:33;;;;;;;;;;;;;;;;;;4998415;28;20025;-82
2023/04/19 11:23:58;;;;;;;;;;;;;;;;;;4999087;28;19924;-82
2023/04/19 11:26:23;;;;;;;;;;;;;;;;;;4999234;28;19943;-82
2023/04/19 11:28:49;;;;;;;;;;;;;;;;;;5000332;28;19913;-82
2023/04/19 11:31:14;;;;;;;;;;;;;;;;;;5000016;28;19917;-83
2023/04/19 11:33:40;;;;;;;;;;;;;;;;;;4998428;28;20336;-81
2023/04/19 11:36:05;;;;;;;;;;;;;;;;;;4999766;28;19929;-83
2023/04/19 11:38:30;;;;;;;;;;;;;;;;;;5001897;28;19913;-83
2023/04/19 11:40:56;;;;;;;;;;;;;;;;;;5005054;28;19917;-84
2023/04/19 11:43:21;;;;;;;;;;;;;;;;;;4999305;28;19914;-83
2023/04/19 11:45:46;;;;;;;;;;;;;;;;;;4999635;28;19913;-81
2023/04/19 11:48:12;;;;;;;;;;;;;;;;;;4996857;28;19960;-82
2023/04/19 11:50:37;;;;;;;;;;;;;;;;;;5002816;28;20336;-84
2023/04/19 11:53:02;;;;;;;;;;;;;;;;;;5000362;28;19924;-83
2023/04/19 11:55:27;;;;;;;;;;;;;;;;;;5004418;28;20012;-83
2023/04/19 11:57:53;;;;;;;;;;;;;;;;;;4999208;28;19913;-83
2023/04/19 12:00:18;;;;;;;;;;;;;;;;;;5003770;28;19996;-82
2023/04/19 12:02:44;;;;;;;;;;;;;;;;;;5012986;28;19923;-82
2023/04/19 12:05:09;;;;;;;;;;;;;;;;;;5008078;28;19917;-83
2023/04/19 12:07:34;;;;;;;;;;;;;;;;;;4999566;28;19917;-84
2023/04/19 12:10:00;;;;;;;;;;;;;;;;;;5003884;28;20320;-85
2023/04/19 12:12:25;;;;;;;;;;;;;;;;;;5005111;28;20296;-82
2023/04/19 12:14:51;;;;;;;;;;;;;;;;;;4998915;28;19917;-82
2023/04/19 12:17:16;;;;;;;;;;;;;;;;;;4997939;28;19921;-82
2023/04/19 12:19:41;;;;;;;;;;;;;;;;;;5027816;28;19976;-82
2023/04/19 12:22:07;;;;;;;;;;;;;;;;;;5011203;28;19960;-82
2023/04/19 12:24:32;;;;;;;;;;;;;;;;;;5006714;28;19913;-82
2023/04/19 12:26:58;;;;;;;;;;;;;;;;;;5005873;28;19917;-82
2023/04/19 12:29:26;;;;;;;;;;;;;;;;;;5036901;28;19968;-83
2023/04/19 12:31:51;;;;;;;;;;;;;;;;;;5000791;28;19915;-83
2023/04/19 12:34:16;;;;;;;;;;;;;;;;;;5003321;28;19983;-84
2023/04/19 12:36:42;;;;;;;;;;;;;;;;;;4997867;28;19921;-83
2023/04/19 12:39:08;;;;;;;;;;;;;;;;;;5002999;28;19956;-83
2023/04/19 12:41:33;;;;;;;;;;;;;;;;;;5005954;28;19956;-82
2023/04/19 12:43:58;;;;;;;;;;;;;;;;;;5038822;28;19913;-83
2023/04/19 12:46:24;;;;;;;;;;;;;;;;;;5016785;28;19925;-82
2023/04/19 12:48:49;;;;;;;;;;;;;;;;;;5009944;28;19921;-83
2023/04/19 12:51:14;;;;;;;;;;;;;;;;;;5003362;28;19921;-83
2023/04/19 12:53:40;;;;;;;;;;;;;;;;;;4986743;28;19913;-82
2023/04/19 12:56:06;;;;;;;;;;;;;;;;;;5004709;28;19914;-82
2023/04/19 12:58:31;;;;;;;;;;;;;;;;;;5025108;28;19926;-84
2023/04/19 13:00:57;;;;;;;;;;;;;;;;;;5000932;28;20008;-83
2023/04/19 13:03:22;;;;;;;;;;;;;;;;;;5009864;28;19918;-83
2023/04/19 13:05:48;;;;;;;;;;;;;;;;;;5013281;28;19920;-82
2023/04/19 13:08:13;;;;;;;;;;;;;;;;;;5014362;28;19913;-83
2023/04/19 13:10:38;;;;;;;;;;;;;;;;;;5010267;28;19925;-84
2023/04/19 13:13:03;;;;;;;;;;;;;;;;;;5015239;28;20324;-83
2023/04/19 13:15:29;;;;;;;;;;;;;;;;;;5007157;28;19925;-83
2023/04/19 13:17:54;;;;;;;;;;;;;;;;;;5006725;28;19913;-82
2023/04/19 13:20:20;;;;;;;;;;;;;;;;;;5015427;28;19914;-84
2023/04/19 13:22:45;;;;;;;;;;;;;;;;;;4996685;28;19909;-84
2023/04/19 13:25:10;;;;;;;;;;;;;;;;;;5005399;28;19913;-82
2023/04/19 13:27:35;;;;;;;;;;;;;;;;;;5010693;28;19917;-83
2023/04/19 13:30:01;;;;;;;;;;;;;;;;;;5013272;28;19914;-82
2023/04/19 13:32:26;;;;;;;;;;;;;;;;;;5009608;28;20017;-83
2023/04/19 13:34:52;;;;;;;;;;;;;;;;;;5009731;28;19924;-83
2023/04/19 13:37:17;;;;;;;;;;;;;;;;;;5012925;28;20302;-82
2023/04/19 13:39:43;;;;;;;;;;;;;;;;;;5009282;28;19921;-83
2023/04/19 13:42:08;;;;;;;;;;;;;;;;;;5010394;28;19917;-83
2023/04/19 13:44:33;;;;;;;;;;;;;;;;;;5008467;28;19952;-83
2023/04/19 13:46:59;;;;;;;;;;;;;;;;;;5008053;28;19917;-82
2023/04/19 13:49:31;;;;;;;;;;;;;;;;;;5043840;28;19981;-83
2023/04/19 13:52:00;;;;;;;;;;;;;;;;;;5002725;28;19973;-84
2023/04/19 13:54:33;;;;;;;;;;;;;;;;;;4996840;28;20282;-83
2023/04/19 13:57:01;;;;;;;;;;;;;;;;;;5003973;28;19952;-86
2023/04/19 13:59:29;;;;;;;;;;;;;;;;;;5013022;28;19910;-82
2023/04/19 14:01:54;;;;;;;;;;;;;;;;;;5031645;28;19917;-82
2023/04/19 14:04:20;;;;;;;;;;;;;;;;;;5009935;28;19956;-83
2023/04/19 14:06:45;;;;;;;;;;;;;;;;;;5014821;28;19924;-85
2023/04/19 14:09:10;;;;;;;;;;;;;;;;;;5011377;28;20328;-83
2023/04/19 14:11:37;;;;;;;;;;;;;;;;;;5010196;28;19917;-83
2023/04/19 14:14:02;;;;;;;;;;;;;;;;;;5010948;28;19910;-85
2023/04/19 14:16:27;;;;;;;;;;;;;;;;;;5007612;28;20269;-84
2023/04/19 14:18:53;;;;;;;;;;;;;;;;;;5004286;28;19910;-83
2023/04/19 14:21:18;;;;;;;;;;;;;;;;;;5005053;28;19924;-83
2023/04/19 14:23:43;;;;;;;;;;;;;;;;;;5006028;28;19909;-83
2023/04/19 14:26:09;;;;;;;;;;;;;;;;;;5004957;28;19921;-83
2023/04/19 14:28:34;;;;;;;;;;;;;;;;;;5036545;28;19981;-83
2023/04/19 14:31:00;;;;;;;;;;;;;;;;;;5006008;28;19941;-85
2023/04/19 14:33:40;;;;;;;;;;;;;;;;;;5004047;28;19909;-82
2023/04/19 14:36:06;;;;;;;;;;;;;;;;;;5002255;28;19922;-82
2023/04/19 14:38:34;;;;;;;;;;;;;;;;;;5008233;28;19909;-82
2023/04/19 14:40:59;;;;;;;;;;;;;;;;;;5008614;28;20007;-82
2023/04/19 14:43:33;;;;;;;;;;;;;;;;;;5008198;28;19909;-83
2023/04/19 14:45:59;;;;;;;;;;;;;;;;;;5033066;28;19922;-83
2023/04/19 14:48:24;;;;;;;;;;;;;;;;;;5006070;28;20012;-83
2023/04/19 14:50:50;;;;;;;;;;;;;;;;;;5007024;28;19980;-84
2023/04/19 14:53:15;;;;;;;;;;;;;;;;;;5008637;28;19910;-82
2023/04/19 14:55:41;;;;;;;;;;;;;;;;;;5012450;28;19914;-83
2023/04/19 14:58:06;;;;;;;;;;;;;;;;;;5005409;28;19925;-83
2023/04/19 15:00:35;;;;;;;;;;;;;;;;;;5006755;28;19914;-83
2023/04/19 15:03:00;;;;;;;;;;;;;;;;;;5006769;28;19913;-82
2023/04/19 15:05:28;;;;;;;;;;;;;;;;;;5004375;28;19913;-84
2023/04/19 15:07:53;;;;;;;;;;;;;;;;;;4993008;28;19913;-83
2023/04/19 15:10:19;;;;;;;;;;;;;;;;;;5009753;28;19964;-84
2023/04/19 15:12:44;;;;;;;;;;;;;;;;;;4993082;28;20250;-84
2023/04/19 15:15:10;;;;;;;;;;;;;;;;;;4998684;28;19914;-83
2023/04/19 15:17:36;;;;;;;;;;;;;;;;;;4994096;28;19956;-83
2023/04/19 15:20:02;;;;;;;;;;;;;;;;;;5032473;28;20400;-82
2023/04/19 15:22:28;;;;;;;;;;;;;;;;;;5000451;28;19913;-83
2023/04/19 15:24:53;;;;;;;;;;;;;;;;;;5007733;28;19913;-82
2023/04/19 15:27:22;;;;;;;;;;;;;;;;;;5026484;28;19921;-83
2023/04/19 15:29:47;;;;;;;;;;;;;;;;;;5031296;28;19913;-79
2023/04/19 15:32:13;;;;;;;;;;;;;;;;;;5001955;28;19909;-82
2023/04/19 15:34:41;;;;;;;;;;;;;;;;;;5010198;28;19913;-83
2023/04/19 15:37:08;;;;;;;;;;;;;;;;;;5007590;28;19909;-83
2023/04/19 15:39:34;;;;;;;;;;;;;;;;;;5012746;28;19982;-83
2023/04/19 15:42:02;;;;;;;;;;;;;;;;;;5030082;28;19910;-81
2023/04/19 15:44:31;;;;;;;;;;;;;;;;;;5034321;28;19913;-82
2023/04/19 15:46:56;;;;;;;;;;;;;;;;;;4992924;28;19940;-82
2023/04/19 15:49:21;;;;;;;;;;;;;;;;;;4994027;28;19918;-82
2023/04/19 15:51:50;;;;;;;;;;;;;;;;;;4994002;28;19936;-82
2023/04/19 15:54:24;;;;;;;;;;;;;;;;;;4998554;28;19917;-82
2023/04/19 15:56:53;;;;;;;;;;;;;;;;;;4995905;28;19918;-82
2023/04/19 15:59:21;;;;;;;;;;;;;;;;;;5006811;28;20558;-81
2023/04/19 16:01:49;;;;;;;;;;;;;;;;;;4996052;28;20006;-82
2023/04/19 16:04:14;;;;;;;;;;;;;;;;;;5025733;28;19936;-82
2023/04/19 16:06:40;;;;;;;;;;;;;;;;;;4993357;28;19918;-81
2023/04/19 16:09:07;;;;;;;;;;;;;;;;;;4993431;28;20266;-82
2023/04/19 16:11:32;;;;;;;;;;;;;;;;;;4992816;28;20459;-82
2023/04/19 16:13:57;;;;;;;;;;;;;;;;;;5000460;28;19973;-83
2023/04/19 16:16:25;;;;;;;;;;;;;;;;;;5026460;28;19914;-81
2023/04/19 16:18:51;;;;;;;;;;;;;;;;;;4998635;28;19921;-83
2023/04/19 16:21:25;;;;;;;;;;;;;;;;;;5004295;28;20008;-82
2023/04/19 16:23:51;;;;;;;;;;;;;;;;;;5001695;28;19913;-82
2023/04/19 16:26:16;;;;;;;;;;;;;;;;;;5001152;28;19925;-82
2023/04/19 16:28:42;;;;;;;;;;;;;;;;;;5004394;28;20304;-81
2023/04/19 16:31:07;;;;;;;;;;;;;;;;;;5008781;28;20035;-82
2023/04/19 16:33:36;;;;;;;;;;;;;;;;;;4994090;28;19949;-81
2023/04/19 16:36:11;;;;;;;;;;;;;;;;;;4993109;28;20340;-81
2023/04/19 16:38:46;;;;;;;;;;;;;;;;;;4991603;28;19913;-82